sensor_id;sensor_type;location;lat;lon;timestamp;P1;durP1;ratioP1;P2;durP2;ratioP2
71570;SDS011;59407;42.682;23.322;2023-06-04T00:01:22;3.00;;;1.93;;
71570;SDS011;59407;42.682;23.322;2023-06-04T00:03:48;3.90;;;1.87;;
71570;SDS011;59407;42.682;23.322;2023-06-04T00:06:13;2.80;;;1.47;;
71570;SDS011;59407;42.682;23.322;2023-06-04T00:08:38;3.80;;;1.60;;
71570;SDS011;59407;42.682;23.322;2023-06-04T00:11:04;6.63;;;1.67;;
71570;SDS011;59407;42.682;23.322;2023-06-04T00:13:30;2.63;;;1.50;;
71570;SDS011;59407;42.682;23.322;2023-06-04T00:15:57;2.95;;;1.38;;
71570;SDS011;59407;42.682;23.322;2023-06-04T00:18:22;3.53;;;1.60;;
71570;SDS011;59407;42.682;23.322;2023-06-04T00:20:48;3.43;;;1.83;;
71570;SDS011;59407;42.682;23.322;2023-06-04T00:23:14;5.35;;;1.50;;
71570;SDS011;59407;42.682;23.322;2023-06-04T00:25:39;2.33;;;1.10;;
71570;SDS011;59407;42.682;23.322;2023-06-04T00:28:05;2.40;;;1.30;;
71570;SDS011;59407;42.682;23.322;2023-06-04T00:30:31;2.73;;;1.13;;
71570;SDS011;59407;42.682;23.322;2023-06-04T00:32:56;2.63;;;1.40;;
71570;SDS011;59407;42.682;23.322;2023-06-04T00:35:26;3.10;;;1.67;;
71570;SDS011;59407;42.682;23.322;2023-06-04T00:37:53;3.50;;;1.40;;
71570;SDS011;59407;42.682;23.322;2023-06-04T00:40:20;3.90;;;2.03;;
71570;SDS011;59407;42.682;23.322;2023-06-04T00:42:46;2.90;;;1.50;;
71570;SDS011;59407;42.682;23.322;2023-06-04T00:45:11;2.33;;;1.50;;
71570;SDS011;59407;42.682;23.322;2023-06-04T00:47:40;2.60;;;1.58;;
71570;SDS011;59407;42.682;23.322;2023-06-04T00:50:06;3.60;;;1.40;;
71570;SDS011;59407;42.682;23.322;2023-06-04T00:52:32;3.78;;;1.70;;
71570;SDS011;59407;42.682;23.322;2023-06-04T00:54:58;3.03;;;1.40;;
71570;SDS011;59407;42.682;23.322;2023-06-04T00:57:24;3.35;;;1.70;;
71570;SDS011;59407;42.682;23.322;2023-06-04T00:59:50;3.77;;;1.50;;
71570;SDS011;59407;42.682;23.322;2023-06-04T01:02:21;2.78;;;1.50;;
71570;SDS011;59407;42.682;23.322;2023-06-04T01:04:58;4.35;;;1.80;;
71570;SDS011;59407;42.682;23.322;2023-06-04T01:07:35;2.60;;;1.37;;
71570;SDS011;59407;42.682;23.322;2023-06-04T01:10:06;3.22;;;1.60;;
71570;SDS011;59407;42.682;23.322;2023-06-04T01:12:35;3.83;;;1.75;;
71570;SDS011;59407;42.682;23.322;2023-06-04T01:15:00;3.33;;;1.88;;
71570;SDS011;59407;42.682;23.322;2023-06-04T01:17:27;4.07;;;2.23;;
71570;SDS011;59407;42.682;23.322;2023-06-04T01:25:38;3.60;;;1.73;;
71570;SDS011;59407;42.682;23.322;2023-06-04T01:28:05;3.63;;;1.75;;
71570;SDS011;59407;42.682;23.322;2023-06-04T01:30:32;3.33;;;1.60;;
71570;SDS011;59407;42.682;23.322;2023-06-04T01:33:02;3.15;;;1.35;;
71570;SDS011;59407;42.682;23.322;2023-06-04T01:35:28;2.50;;;1.20;;
71570;SDS011;59407;42.682;23.322;2023-06-04T01:37:56;3.33;;;1.80;;
71570;SDS011;59407;42.682;23.322;2023-06-04T01:40:22;3.67;;;1.90;;
71570;SDS011;59407;42.682;23.322;2023-06-04T01:42:48;3.50;;;1.50;;
71570;SDS011;59407;42.682;23.322;2023-06-04T01:45:20;3.58;;;2.03;;
71570;SDS011;59407;42.682;23.322;2023-06-04T01:47:48;3.72;;;1.80;;
71570;SDS011;59407;42.682;23.322;2023-06-04T01:50:14;3.70;;;1.50;;
71570;SDS011;59407;42.682;23.322;2023-06-04T01:52:40;3.40;;;1.63;;
71570;SDS011;59407;42.682;23.322;2023-06-04T01:55:06;2.40;;;1.30;;
71570;SDS011;59407;42.682;23.322;2023-06-04T01:57:36;2.47;;;1.23;;
71570;SDS011;59407;42.682;23.322;2023-06-04T02:00:03;3.90;;;1.35;;
71570;SDS011;59407;42.682;23.322;2023-06-04T02:02:36;3.15;;;1.05;;
71570;SDS011;59407;42.682;23.322;2023-06-04T02:05:03;3.87;;;1.53;;
71570;SDS011;59407;42.682;23.322;2023-06-04T02:07:29;3.30;;;1.50;;
71570;SDS011;59407;42.682;23.322;2023-06-04T02:09:57;3.17;;;1.55;;
71570;SDS011;59407;42.682;23.322;2023-06-04T02:12:22;3.78;;;1.48;;
71570;SDS011;59407;42.682;23.322;2023-06-04T02:14:48;3.70;;;1.30;;
71570;SDS011;59407;42.682;23.322;2023-06-04T02:17:13;2.50;;;1.30;;
71570;SDS011;59407;42.682;23.322;2023-06-04T02:19:41;2.45;;;0.93;;
71570;SDS011;59407;42.682;23.322;2023-06-04T02:22:14;2.53;;;1.20;;
71570;SDS011;59407;42.682;23.322;2023-06-04T02:24:41;6.15;;;1.70;;
71570;SDS011;59407;42.682;23.322;2023-06-04T02:27:09;2.80;;;1.10;;
71570;SDS011;59407;42.682;23.322;2023-06-04T02:29:38;3.58;;;1.58;;
71570;SDS011;59407;42.682;23.322;2023-06-04T02:32:04;2.78;;;1.30;;
71570;SDS011;59407;42.682;23.322;2023-06-04T02:34:30;2.70;;;1.20;;
71570;SDS011;59407;42.682;23.322;2023-06-04T02:36:56;3.00;;;1.50;;
71570;SDS011;59407;42.682;23.322;2023-06-04T02:39:21;2.70;;;1.30;;
71570;SDS011;59407;42.682;23.322;2023-06-04T02:41:48;2.70;;;1.10;;
71570;SDS011;59407;42.682;23.322;2023-06-04T02:44:13;2.90;;;1.30;;
71570;SDS011;59407;42.682;23.322;2023-06-04T02:46:39;3.53;;;1.67;;
71570;SDS011;59407;42.682;23.322;2023-06-04T02:49:05;2.33;;;1.07;;
71570;SDS011;59407;42.682;23.322;2023-06-04T02:51:30;2.53;;;1.10;;
71570;SDS011;59407;42.682;23.322;2023-06-04T02:53:56;4.43;;;1.37;;
71570;SDS011;59407;42.682;23.322;2023-06-04T02:56:21;3.67;;;1.30;;
71570;SDS011;59407;42.682;23.322;2023-06-04T02:58:50;3.05;;;1.00;;
71570;SDS011;59407;42.682;23.322;2023-06-04T03:01:18;3.13;;;1.50;;
71570;SDS011;59407;42.682;23.322;2023-06-04T03:03:45;3.33;;;1.53;;
71570;SDS011;59407;42.682;23.322;2023-06-04T03:06:13;2.58;;;1.42;;
71570;SDS011;59407;42.682;23.322;2023-06-04T03:08:40;2.80;;;1.30;;
71570;SDS011;59407;42.682;23.322;2023-06-04T03:11:06;2.80;;;1.40;;
71570;SDS011;59407;42.682;23.322;2023-06-04T03:13:32;2.72;;;1.25;;
71570;SDS011;59407;42.682;23.322;2023-06-04T03:15:58;3.70;;;1.53;;
71570;SDS011;59407;42.682;23.322;2023-06-04T03:18:26;2.55;;;1.35;;
71570;SDS011;59407;42.682;23.322;2023-06-04T03:20:53;4.03;;;1.98;;
71570;SDS011;59407;42.682;23.322;2023-06-04T03:23:19;2.93;;;1.10;;
71570;SDS011;59407;42.682;23.322;2023-06-04T03:25:44;3.88;;;1.48;;
71570;SDS011;59407;42.682;23.322;2023-06-04T03:28:11;2.90;;;1.50;;
71570;SDS011;59407;42.682;23.322;2023-06-04T03:30:36;4.57;;;2.00;;
71570;SDS011;59407;42.682;23.322;2023-06-04T03:33:01;2.87;;;1.63;;
71570;SDS011;59407;42.682;23.322;2023-06-04T03:35:27;2.25;;;1.17;;
71570;SDS011;59407;42.682;23.322;2023-06-04T03:37:53;2.87;;;1.30;;
71570;SDS011;59407;42.682;23.322;2023-06-04T03:40:18;3.00;;;1.63;;
71570;SDS011;59407;42.682;23.322;2023-06-04T03:42:44;3.53;;;1.70;;
71570;SDS011;59407;42.682;23.322;2023-06-04T03:45:09;2.67;;;1.33;;
71570;SDS011;59407;42.682;23.322;2023-06-04T03:47:35;3.23;;;1.57;;
71570;SDS011;59407;42.682;23.322;2023-06-04T03:50:07;3.07;;;1.73;;
71570;SDS011;59407;42.682;23.322;2023-06-04T03:52:33;3.25;;;1.80;;
71570;SDS011;59407;42.682;23.322;2023-06-04T03:54:58;3.23;;;1.67;;
71570;SDS011;59407;42.682;23.322;2023-06-04T03:57:25;3.27;;;1.67;;
71570;SDS011;59407;42.682;23.322;2023-06-04T03:59:51;3.47;;;2.00;;
71570;SDS011;59407;42.682;23.322;2023-06-04T04:02:17;2.83;;;1.43;;
71570;SDS011;59407;42.682;23.322;2023-06-04T04:04:44;4.10;;;1.43;;
71570;SDS011;59407;42.682;23.322;2023-06-04T04:07:10;3.15;;;1.58;;
71570;SDS011;59407;42.682;23.322;2023-06-04T04:09:36;2.83;;;1.30;;
71570;SDS011;59407;42.682;23.322;2023-06-04T04:12:02;2.72;;;1.48;;
71570;SDS011;59407;42.682;23.322;2023-06-04T04:14:29;3.77;;;1.80;;
71570;SDS011;59407;42.682;23.322;2023-06-04T04:16:54;3.70;;;1.58;;
71570;SDS011;59407;42.682;23.322;2023-06-04T04:19:20;4.07;;;2.20;;
71570;SDS011;59407;42.682;23.322;2023-06-04T04:21:45;3.57;;;1.80;;
71570;SDS011;59407;42.682;23.322;2023-06-04T04:24:32;3.50;;;1.70;;
71570;SDS011;59407;42.682;23.322;2023-06-04T04:27:00;3.28;;;1.70;;
71570;SDS011;59407;42.682;23.322;2023-06-04T04:29:28;2.65;;;1.48;;
71570;SDS011;59407;42.682;23.322;2023-06-04T04:31:58;3.83;;;2.15;;
71570;SDS011;59407;42.682;23.322;2023-06-04T04:34:35;4.47;;;1.70;;
71570;SDS011;59407;42.682;23.322;2023-06-04T04:37:02;3.17;;;1.70;;
71570;SDS011;59407;42.682;23.322;2023-06-04T04:39:33;4.30;;;2.42;;
71570;SDS011;59407;42.682;23.322;2023-06-04T04:41:59;4.55;;;1.90;;
71570;SDS011;59407;42.682;23.322;2023-06-04T04:44:25;5.45;;;2.05;;
71570;SDS011;59407;42.682;23.322;2023-06-04T04:46:51;3.67;;;2.00;;
71570;SDS011;59407;42.682;23.322;2023-06-04T04:49:19;6.57;;;2.28;;
71570;SDS011;59407;42.682;23.322;2023-06-04T04:51:45;4.13;;;2.17;;
71570;SDS011;59407;42.682;23.322;2023-06-04T04:54:12;4.57;;;2.83;;
71570;SDS011;59407;42.682;23.322;2023-06-04T04:56:37;3.00;;;1.80;;
71570;SDS011;59407;42.682;23.322;2023-06-04T04:59:04;5.93;;;1.98;;
71570;SDS011;59407;42.682;23.322;2023-06-04T05:01:29;3.37;;;1.90;;
71570;SDS011;59407;42.682;23.322;2023-06-04T05:03:55;2.90;;;1.70;;
71570;SDS011;59407;42.682;23.322;2023-06-04T05:06:20;3.77;;;2.13;;
71570;SDS011;59407;42.682;23.322;2023-06-04T05:08:48;3.03;;;1.67;;
71570;SDS011;59407;42.682;23.322;2023-06-04T05:11:14;3.80;;;1.97;;
71570;SDS011;59407;42.682;23.322;2023-06-04T05:13:39;4.03;;;2.33;;
71570;SDS011;59407;42.682;23.322;2023-06-04T05:16:06;4.35;;;2.28;;
71570;SDS011;59407;42.682;23.322;2023-06-04T05:18:39;3.33;;;1.90;;
71570;SDS011;59407;42.682;23.322;2023-06-04T05:21:06;4.53;;;2.55;;
71570;SDS011;59407;42.682;23.322;2023-06-04T05:23:32;4.23;;;1.97;;
71570;SDS011;59407;42.682;23.322;2023-06-04T05:26:02;4.50;;;2.60;;
71570;SDS011;59407;42.682;23.322;2023-06-04T05:28:29;3.40;;;2.03;;
71570;SDS011;59407;42.682;23.322;2023-06-04T05:30:54;5.53;;;2.53;;
71570;SDS011;59407;42.682;23.322;2023-06-04T05:33:27;3.72;;;2.03;;
71570;SDS011;59407;42.682;23.322;2023-06-04T05:35:56;4.05;;;2.35;;
71570;SDS011;59407;42.682;23.322;2023-06-04T05:38:23;3.92;;;2.40;;
71570;SDS011;59407;42.682;23.322;2023-06-04T05:40:56;3.87;;;2.17;;
71570;SDS011;59407;42.682;23.322;2023-06-04T05:43:22;3.72;;;2.08;;
71570;SDS011;59407;42.682;23.322;2023-06-04T05:45:48;6.67;;;3.00;;
71570;SDS011;59407;42.682;23.322;2023-06-04T05:48:14;3.63;;;2.40;;
71570;SDS011;59407;42.682;23.322;2023-06-04T05:50:40;5.40;;;3.03;;
71570;SDS011;59407;42.682;23.322;2023-06-04T05:53:06;4.95;;;2.40;;
71570;SDS011;59407;42.682;23.322;2023-06-04T05:55:31;4.07;;;2.63;;
71570;SDS011;59407;42.682;23.322;2023-06-04T05:57:57;3.97;;;2.37;;
71570;SDS011;59407;42.682;23.322;2023-06-04T06:00:22;4.88;;;2.45;;
71570;SDS011;59407;42.682;23.322;2023-06-04T06:02:51;4.33;;;2.47;;
71570;SDS011;59407;42.682;23.322;2023-06-04T06:05:20;4.40;;;2.63;;
71570;SDS011;59407;42.682;23.322;2023-06-04T06:07:46;5.35;;;2.60;;
71570;SDS011;59407;42.682;23.322;2023-06-04T06:10:14;5.57;;;2.75;;
71570;SDS011;59407;42.682;23.322;2023-06-04T06:12:42;4.57;;;2.60;;
71570;SDS011;59407;42.682;23.322;2023-06-04T06:15:07;5.85;;;2.55;;
71570;SDS011;59407;42.682;23.322;2023-06-04T06:17:34;4.87;;;2.57;;
71570;SDS011;59407;42.682;23.322;2023-06-04T06:20:00;7.00;;;3.00;;
71570;SDS011;59407;42.682;23.322;2023-06-04T06:22:31;5.35;;;2.55;;
71570;SDS011;59407;42.682;23.322;2023-06-04T06:24:58;5.07;;;3.00;;
71570;SDS011;59407;42.682;23.322;2023-06-04T06:27:25;4.75;;;2.35;;
71570;SDS011;59407;42.682;23.322;2023-06-04T06:29:52;4.47;;;2.50;;
71570;SDS011;59407;42.682;23.322;2023-06-04T06:32:20;4.80;;;2.40;;
71570;SDS011;59407;42.682;23.322;2023-06-04T06:34:46;4.82;;;3.08;;
71570;SDS011;59407;42.682;23.322;2023-06-04T06:37:12;4.83;;;2.70;;
71570;SDS011;59407;42.682;23.322;2023-06-04T06:39:37;5.60;;;2.60;;
71570;SDS011;59407;42.682;23.322;2023-06-04T06:42:03;6.47;;;3.10;;
71570;SDS011;59407;42.682;23.322;2023-06-04T06:44:28;5.23;;;2.63;;
71570;SDS011;59407;42.682;23.322;2023-06-04T06:46:54;5.97;;;2.50;;
71570;SDS011;59407;42.682;23.322;2023-06-04T06:49:20;4.13;;;2.50;;
71570;SDS011;59407;42.682;23.322;2023-06-04T06:51:48;4.13;;;2.53;;
71570;SDS011;59407;42.682;23.322;2023-06-04T06:54:17;4.28;;;2.83;;
71570;SDS011;59407;42.682;23.322;2023-06-04T06:56:46;5.93;;;3.00;;
71570;SDS011;59407;42.682;23.322;2023-06-04T06:59:13;8.50;;;4.15;;
71570;SDS011;59407;42.682;23.322;2023-06-04T07:01:40;6.97;;;3.45;;
71570;SDS011;59407;42.682;23.322;2023-06-04T07:04:05;10.33;;;5.77;;
71570;SDS011;59407;42.682;23.322;2023-06-04T07:06:31;6.07;;;2.83;;
71570;SDS011;59407;42.682;23.322;2023-06-04T07:08:58;5.80;;;3.92;;
71570;SDS011;59407;42.682;23.322;2023-06-04T07:11:24;5.70;;;3.60;;
71570;SDS011;59407;42.682;23.322;2023-06-04T07:13:50;4.93;;;3.17;;
71570;SDS011;59407;42.682;23.322;2023-06-04T07:16:16;10.13;;;6.20;;
71570;SDS011;59407;42.682;23.322;2023-06-04T07:18:50;6.80;;;3.40;;
71570;SDS011;59407;42.682;23.322;2023-06-04T07:21:16;4.95;;;2.70;;
71570;SDS011;59407;42.682;23.322;2023-06-04T07:23:44;5.82;;;3.35;;
71570;SDS011;59407;42.682;23.322;2023-06-04T07:26:14;4.53;;;2.72;;
71570;SDS011;59407;42.682;23.322;2023-06-04T07:28:39;7.40;;;4.00;;
71570;SDS011;59407;42.682;23.322;2023-06-04T07:31:05;4.70;;;2.80;;
71570;SDS011;59407;42.682;23.322;2023-06-04T07:33:32;5.43;;;3.13;;
71570;SDS011;59407;42.682;23.322;2023-06-04T07:36:13;6.82;;;3.95;;
71570;SDS011;59407;42.682;23.322;2023-06-04T07:38:39;5.78;;;2.60;;
71570;SDS011;59407;42.682;23.322;2023-06-04T07:41:05;5.82;;;2.90;;
71570;SDS011;59407;42.682;23.322;2023-06-04T07:43:33;5.47;;;3.23;;
71570;SDS011;59407;42.682;23.322;2023-06-04T07:46:04;6.82;;;3.67;;
71570;SDS011;59407;42.682;23.322;2023-06-04T07:48:30;6.28;;;3.22;;
71570;SDS011;59407;42.682;23.322;2023-06-04T07:51:00;5.37;;;2.93;;
71570;SDS011;59407;42.682;23.322;2023-06-04T07:53:26;5.32;;;2.85;;
71570;SDS011;59407;42.682;23.322;2023-06-04T07:55:52;4.78;;;2.88;;
71570;SDS011;59407;42.682;23.322;2023-06-04T07:58:18;5.32;;;3.08;;
71570;SDS011;59407;42.682;23.322;2023-06-04T08:00:44;5.77;;;2.90;;
71570;SDS011;59407;42.682;23.322;2023-06-04T08:03:09;5.47;;;2.97;;
71570;SDS011;59407;42.682;23.322;2023-06-04T08:05:36;6.40;;;3.28;;
71570;SDS011;59407;42.682;23.322;2023-06-04T08:08:02;6.28;;;3.10;;
71570;SDS011;59407;42.682;23.322;2023-06-04T08:10:28;4.47;;;3.00;;
71570;SDS011;59407;42.682;23.322;2023-06-04T08:12:54;5.53;;;3.00;;
71570;SDS011;59407;42.682;23.322;2023-06-04T08:15:22;6.30;;;3.30;;
71570;SDS011;59407;42.682;23.322;2023-06-04T08:17:48;8.55;;;3.47;;
71570;SDS011;59407;42.682;23.322;2023-06-04T08:20:13;8.57;;;3.40;;
71570;SDS011;59407;42.682;23.322;2023-06-04T08:22:39;6.63;;;3.30;;
71570;SDS011;59407;42.682;23.322;2023-06-04T08:25:06;5.47;;;2.83;;
71570;SDS011;59407;42.682;23.322;2023-06-04T08:27:32;5.07;;;2.92;;
71570;SDS011;59407;42.682;23.322;2023-06-04T08:29:57;5.40;;;2.85;;
71570;SDS011;59407;42.682;23.322;2023-06-04T08:32:23;7.00;;;3.00;;
71570;SDS011;59407;42.682;23.322;2023-06-04T08:34:49;4.38;;;2.78;;
71570;SDS011;59407;42.682;23.322;2023-06-04T08:37:15;7.93;;;3.40;;
71570;SDS011;59407;42.682;23.322;2023-06-04T08:39:42;7.37;;;3.60;;
71570;SDS011;59407;42.682;23.322;2023-06-04T08:42:07;5.38;;;3.25;;
71570;SDS011;59407;42.682;23.322;2023-06-04T08:44:40;6.40;;;3.13;;
71570;SDS011;59407;42.682;23.322;2023-06-04T08:47:07;6.57;;;3.30;;
71570;SDS011;59407;42.682;23.322;2023-06-04T08:49:34;5.80;;;3.08;;
71570;SDS011;59407;42.682;23.322;2023-06-04T08:52:01;6.13;;;3.55;;
71570;SDS011;59407;42.682;23.322;2023-06-04T08:54:30;5.82;;;2.60;;
71570;SDS011;59407;42.682;23.322;2023-06-04T08:56:56;4.70;;;2.70;;
71570;SDS011;59407;42.682;23.322;2023-06-04T08:59:23;5.72;;;2.65;;
71570;SDS011;59407;42.682;23.322;2023-06-04T09:01:59;7.20;;;3.55;;
71570;SDS011;59407;42.682;23.322;2023-06-04T09:04:24;6.83;;;2.97;;
71570;SDS011;59407;42.682;23.322;2023-06-04T09:06:50;5.93;;;2.78;;
71570;SDS011;59407;42.682;23.322;2023-06-04T09:09:16;6.22;;;3.05;;
71570;SDS011;59407;42.682;23.322;2023-06-04T09:11:47;7.30;;;3.10;;
71570;SDS011;59407;42.682;23.322;2023-06-04T09:14:16;7.53;;;3.40;;
71570;SDS011;59407;42.682;23.322;2023-06-04T09:19:13;6.30;;;2.58;;
71570;SDS011;59407;42.682;23.322;2023-06-04T09:22:00;5.93;;;3.47;;
71570;SDS011;59407;42.682;23.322;2023-06-04T09:24:43;6.40;;;3.07;;
71570;SDS011;59407;42.682;23.322;2023-06-04T09:27:18;6.88;;;3.47;;
71570;SDS011;59407;42.682;23.322;2023-06-04T09:29:57;6.82;;;3.45;;
71570;SDS011;59407;42.682;23.322;2023-06-04T09:32:23;6.55;;;3.50;;
71570;SDS011;59407;42.682;23.322;2023-06-04T09:34:49;5.50;;;3.40;;
71570;SDS011;59407;42.682;23.322;2023-06-04T09:37:15;6.50;;;3.07;;
71570;SDS011;59407;42.682;23.322;2023-06-04T09:39:53;7.07;;;3.53;;
71570;SDS011;59407;42.682;23.322;2023-06-04T09:42:20;6.60;;;3.90;;
71570;SDS011;59407;42.682;23.322;2023-06-04T09:44:47;7.73;;;3.40;;
71570;SDS011;59407;42.682;23.322;2023-06-04T09:47:12;6.25;;;3.53;;
71570;SDS011;59407;42.682;23.322;2023-06-04T09:49:47;7.60;;;3.70;;
71570;SDS011;59407;42.682;23.322;2023-06-04T09:52:16;6.88;;;3.78;;
71570;SDS011;59407;42.682;23.322;2023-06-04T09:54:42;8.15;;;3.97;;
71570;SDS011;59407;42.682;23.322;2023-06-04T09:57:17;6.13;;;3.23;;
71570;SDS011;59407;42.682;23.322;2023-06-04T09:59:44;6.22;;;3.33;;
71570;SDS011;59407;42.682;23.322;2023-06-04T10:02:14;8.23;;;3.97;;
71570;SDS011;59407;42.682;23.322;2023-06-04T10:04:49;8.25;;;3.60;;
71570;SDS011;59407;42.682;23.322;2023-06-04T10:07:45;8.10;;;4.20;;
71570;SDS011;59407;42.682;23.322;2023-06-04T10:10:11;7.20;;;4.00;;
71570;SDS011;59407;42.682;23.322;2023-06-04T10:12:41;9.32;;;4.05;;
71570;SDS011;59407;42.682;23.322;2023-06-04T10:15:13;6.43;;;3.20;;
71570;SDS011;59407;42.682;23.322;2023-06-04T10:17:39;5.78;;;3.30;;
71570;SDS011;59407;42.682;23.322;2023-06-04T10:20:09;8.15;;;3.38;;
71570;SDS011;59407;42.682;23.322;2023-06-04T10:22:35;6.97;;;3.93;;
71570;SDS011;59407;42.682;23.322;2023-06-04T10:25:01;11.38;;;5.65;;
71570;SDS011;59407;42.682;23.322;2023-06-04T10:27:32;6.05;;;3.38;;
71570;SDS011;59407;42.682;23.322;2023-06-04T10:30:00;10.68;;;3.60;;
71570;SDS011;59407;42.682;23.322;2023-06-04T10:32:29;8.15;;;4.38;;
71570;SDS011;59407;42.682;23.322;2023-06-04T10:34:56;7.37;;;3.77;;
71570;SDS011;59407;42.682;23.322;2023-06-04T10:37:23;7.15;;;3.60;;
71570;SDS011;59407;42.682;23.322;2023-06-04T10:39:53;5.80;;;2.97;;
71570;SDS011;59407;42.682;23.322;2023-06-04T10:42:20;6.63;;;3.83;;
71570;SDS011;59407;42.682;23.322;2023-06-04T10:44:47;6.53;;;3.72;;
71570;SDS011;59407;42.682;23.322;2023-06-04T10:47:20;5.77;;;3.10;;
71570;SDS011;59407;42.682;23.322;2023-06-04T10:49:51;6.75;;;3.70;;
71570;SDS011;59407;42.682;23.322;2023-06-04T10:52:17;6.20;;;3.33;;
71570;SDS011;59407;42.682;23.322;2023-06-04T10:54:44;7.40;;;3.38;;
71570;SDS011;59407;42.682;23.322;2023-06-04T10:57:17;4.97;;;2.75;;
71570;SDS011;59407;42.682;23.322;2023-06-04T11:00:15;6.33;;;3.20;;
71570;SDS011;59407;42.682;23.322;2023-06-04T11:02:35;4.47;;;2.70;;
71570;SDS011;59407;42.682;23.322;2023-06-04T11:05:04;8.57;;;3.70;;
71570;SDS011;59407;42.682;23.322;2023-06-04T11:07:43;7.20;;;4.35;;
71570;SDS011;59407;42.682;23.322;2023-06-04T11:10:10;6.85;;;3.55;;
71570;SDS011;59407;42.682;23.322;2023-06-04T11:15:11;5.32;;;2.95;;
71570;SDS011;59407;42.682;23.322;2023-06-04T11:17:51;4.70;;;3.23;;
71570;SDS011;59407;42.682;23.322;2023-06-04T11:20:27;6.50;;;3.22;;
71570;SDS011;59407;42.682;23.322;2023-06-04T11:22:55;5.93;;;3.58;;
71570;SDS011;59407;42.682;23.322;2023-06-04T11:25:23;5.68;;;3.33;;
71570;SDS011;59407;42.682;23.322;2023-06-04T11:27:51;7.50;;;3.97;;
71570;SDS011;59407;42.682;23.322;2023-06-04T11:30:18;7.10;;;4.43;;
71570;SDS011;59407;42.682;23.322;2023-06-04T11:32:44;6.10;;;3.40;;
71570;SDS011;59407;42.682;23.322;2023-06-04T11:35:10;7.22;;;4.03;;
71570;SDS011;59407;42.682;23.322;2023-06-04T11:37:40;5.88;;;3.78;;
71570;SDS011;59407;42.682;23.322;2023-06-04T11:40:15;5.70;;;3.40;;
71570;SDS011;59407;42.682;23.322;2023-06-04T11:42:48;10.53;;;4.03;;
71570;SDS011;59407;42.682;23.322;2023-06-04T11:45:16;10.00;;;5.68;;
71570;SDS011;59407;42.682;23.322;2023-06-04T11:47:53;9.90;;;5.50;;
71570;SDS011;59407;42.682;23.322;2023-06-04T11:50:22;9.23;;;5.53;;
71570;SDS011;59407;42.682;23.322;2023-06-04T11:52:51;10.70;;;5.13;;
71570;SDS011;59407;42.682;23.322;2023-06-04T11:55:19;7.83;;;4.77;;
71570;SDS011;59407;42.682;23.322;2023-06-04T11:57:48;8.15;;;4.53;;
71570;SDS011;59407;42.682;23.322;2023-06-04T12:00:18;8.45;;;5.07;;
71570;SDS011;59407;42.682;23.322;2023-06-04T12:02:49;7.30;;;3.97;;
71570;SDS011;59407;42.682;23.322;2023-06-04T12:05:19;7.40;;;4.80;;
71570;SDS011;59407;42.682;23.322;2023-06-04T12:07:47;8.33;;;4.40;;
71570;SDS011;59407;42.682;23.322;2023-06-04T12:10:18;5.68;;;3.78;;
71570;SDS011;59407;42.682;23.322;2023-06-04T12:12:44;6.65;;;4.47;;
71570;SDS011;59407;42.682;23.322;2023-06-04T12:15:11;8.40;;;5.13;;
71570;SDS011;59407;42.682;23.322;2023-06-04T12:17:48;6.80;;;4.40;;
71570;SDS011;59407;42.682;23.322;2023-06-04T12:20:30;7.17;;;4.40;;
71570;SDS011;59407;42.682;23.322;2023-06-04T12:22:58;5.90;;;4.47;;
71570;SDS011;59407;42.682;23.322;2023-06-04T12:25:25;7.35;;;4.57;;
71570;SDS011;59407;42.682;23.322;2023-06-04T12:27:54;7.45;;;4.57;;
71570;SDS011;59407;42.682;23.322;2023-06-04T12:30:19;7.53;;;4.33;;
71570;SDS011;59407;42.682;23.322;2023-06-04T12:32:47;7.05;;;4.60;;
71570;SDS011;59407;42.682;23.322;2023-06-04T12:35:12;6.38;;;4.15;;
71570;SDS011;59407;42.682;23.322;2023-06-04T12:37:42;7.15;;;5.25;;
71570;SDS011;59407;42.682;23.322;2023-06-04T12:40:13;6.63;;;4.60;;
71570;SDS011;59407;42.682;23.322;2023-06-04T12:42:39;8.40;;;5.45;;
71570;SDS011;59407;42.682;23.322;2023-06-04T12:45:07;9.85;;;5.70;;
71570;SDS011;59407;42.682;23.322;2023-06-04T12:47:36;8.27;;;4.95;;
71570;SDS011;59407;42.682;23.322;2023-06-04T12:50:02;8.60;;;4.95;;
71570;SDS011;59407;42.682;23.322;2023-06-04T12:52:28;7.03;;;4.20;;
71570;SDS011;59407;42.682;23.322;2023-06-04T12:54:53;8.43;;;5.10;;
71570;SDS011;59407;42.682;23.322;2023-06-04T12:57:19;7.78;;;4.70;;
71570;SDS011;59407;42.682;23.322;2023-06-04T12:59:44;7.43;;;4.47;;
71570;SDS011;59407;42.682;23.322;2023-06-04T13:02:10;5.43;;;3.77;;
71570;SDS011;59407;42.682;23.322;2023-06-04T13:04:37;6.25;;;4.22;;
71570;SDS011;59407;42.682;23.322;2023-06-04T13:07:06;6.70;;;4.07;;
71570;SDS011;59407;42.682;23.322;2023-06-04T13:09:33;7.22;;;4.55;;
71570;SDS011;59407;42.682;23.322;2023-06-04T13:12:00;6.20;;;4.35;;
71570;SDS011;59407;42.682;23.322;2023-06-04T13:14:25;6.13;;;3.77;;
71570;SDS011;59407;42.682;23.322;2023-06-04T13:16:51;6.22;;;3.75;;
71570;SDS011;59407;42.682;23.322;2023-06-04T13:19:18;7.03;;;4.32;;
71570;SDS011;59407;42.682;23.322;2023-06-04T13:21:45;6.33;;;4.10;;
71570;SDS011;59407;42.682;23.322;2023-06-04T13:24:11;5.55;;;4.10;;
71570;SDS011;59407;42.682;23.322;2023-06-04T13:26:38;5.70;;;4.37;;
71570;SDS011;59407;42.682;23.322;2023-06-04T13:29:04;6.40;;;4.28;;
71570;SDS011;59407;42.682;23.322;2023-06-04T13:33:58;6.35;;;4.05;;
71570;SDS011;59407;42.682;23.322;2023-06-04T13:36:24;6.40;;;4.50;;
71570;SDS011;59407;42.682;23.322;2023-06-04T13:38:49;6.53;;;4.22;;
71570;SDS011;59407;42.682;23.322;2023-06-04T13:41:17;6.83;;;4.27;;
71570;SDS011;59407;42.682;23.322;2023-06-04T13:43:43;5.80;;;3.75;;
71570;SDS011;59407;42.682;23.322;2023-06-04T13:46:09;4.93;;;3.65;;
71570;SDS011;59407;42.682;23.322;2023-06-04T13:48:35;6.17;;;4.17;;
71570;SDS011;59407;42.682;23.322;2023-06-04T13:51:01;5.00;;;3.47;;
71570;SDS011;59407;42.682;23.322;2023-06-04T13:53:28;7.10;;;3.60;;
71570;SDS011;59407;42.682;23.322;2023-06-04T13:55:54;4.10;;;2.75;;
71570;SDS011;59407;42.682;23.322;2023-06-04T13:58:27;5.32;;;3.33;;
71570;SDS011;59407;42.682;23.322;2023-06-04T14:00:53;4.77;;;3.37;;
71570;SDS011;59407;42.682;23.322;2023-06-04T14:03:19;8.23;;;3.92;;
71570;SDS011;59407;42.682;23.322;2023-06-04T14:05:44;5.63;;;3.90;;
71570;SDS011;59407;42.682;23.322;2023-06-04T14:08:10;5.93;;;3.10;;
71570;SDS011;59407;42.682;23.322;2023-06-04T14:10:37;5.80;;;3.63;;
71570;SDS011;59407;42.682;23.322;2023-06-04T14:13:06;6.57;;;3.80;;
71570;SDS011;59407;42.682;23.322;2023-06-04T14:15:32;6.35;;;3.50;;
71570;SDS011;59407;42.682;23.322;2023-06-04T14:17:59;6.38;;;3.78;;
71570;SDS011;59407;42.682;23.322;2023-06-04T14:20:26;10.15;;;6.85;;
71570;SDS011;59407;42.682;23.322;2023-06-04T14:22:52;9.38;;;3.83;;
71570;SDS011;59407;42.682;23.322;2023-06-04T14:25:17;6.27;;;3.73;;
71570;SDS011;59407;42.682;23.322;2023-06-04T14:27:44;5.78;;;3.67;;
71570;SDS011;59407;42.682;23.322;2023-06-04T14:32:41;6.03;;;3.60;;
71570;SDS011;59407;42.682;23.322;2023-06-04T14:35:10;6.23;;;3.90;;
71570;SDS011;59407;42.682;23.322;2023-06-04T14:37:43;7.30;;;4.25;;
71570;SDS011;59407;42.682;23.322;2023-06-04T14:40:09;6.47;;;4.10;;
71570;SDS011;59407;42.682;23.322;2023-06-04T14:42:35;6.32;;;3.95;;
71570;SDS011;59407;42.682;23.322;2023-06-04T14:45:00;5.70;;;4.10;;
71570;SDS011;59407;42.682;23.322;2023-06-04T14:47:27;6.80;;;4.10;;
71570;SDS011;59407;42.682;23.322;2023-06-04T14:52:47;9.13;;;4.72;;
71570;SDS011;59407;42.682;23.322;2023-06-04T14:55:13;5.97;;;3.80;;